Airfield :
LOGIN :

Register | Disclaimer

   EN    FR    IT 

 










Legend :    VFR   Marginal VFR   IFR   Intensive IFR   Very Intensive IFR
Visi :
Ceiling :
>= 8 km
>= 3000ft
5 to 8 km
1000 to 3000 ft
1500m to 5 km
500 to 1000 ft
800 to 1500m
200 to 500 ft
< 800m
< 200 ft
Symbols :   Thunderstorms  Fog  Heavy snow  Heavy precipitations  Wind > 20 kt
SIGMETs :     Misc.  Thunderstorms  Icing  Turbulence  Mountain Waves  Volcanic Ashes






- Airport Elevation : 39 ft
- IATA code : ANR


EBAW - Anvers / Antwerpen Deurne

CURRENT METAR :
  • 090950Z 20008KT 9999 FEW008 SCT010 BKN012 04/02 Q1003 TEMPO BKN008

EXPIRED METARs :
  • 090920Z 19007KT 9999 -RA FEW008 SCT010 BKN012 04/02 Q1003 TEMPO BKN008
  • 090850Z 19008KT 9999 -RA FEW008 SCT010 BKN012 04/02 Q1003 TEMPO BKN008
  • 090820Z 20008KT 9999 FEW010 BKN012 OVC020 04/01 Q1003 TEMPO BKN008
  • 090750Z 20008KT 9999 SCT012 BKN032 03/01 Q1003 BECMG BKN012 OVC017
  • 090720Z 19006KT 9999 SCT012 BKN027 03/01 Q1003 BECMG BKN012

TAF TAF EBAW
Valid from the 09 at 09:00 until the 09 at 18:00 UTC


090801Z 0909/0918 20006KT 8000 SCT008 BKN011
TEMPO 0909/0913 BKN008
PROB30 0909/0912 3500 BR



MET'MAP, your aeronautical weather chart ! - Copyright ORBIFLY December 2007 - Disclaimer

ORBIFLY MET'MAP TEAM :

Programming & Development : Alexandra Zaïnal
Concept & original design : Baudouin d'Aumeries
Assistance for programming : Marc-Olivier Méhu
Technical & hardware support : Manuel Goepfert

Contact : metmap@orbifly.com




SOURCES & CREDITS :

   NOAA